createdAt,value
2018-04-30T00:01:41.281Z,7.10
2018-04-30T00:04:08.749Z,6.70
2018-04-30T00:06:36.208Z,6.80
2018-04-30T00:09:03.675Z,5.70
2018-04-30T00:11:31.214Z,6.00
2018-04-30T00:13:58.669Z,6.17
2018-04-30T00:16:26.135Z,6.70
2018-04-30T00:18:53.760Z,7.17
2018-04-30T00:21:21.366Z,6.70
2018-04-30T00:23:48.821Z,7.17
2018-04-30T00:26:16.448Z,6.70
2018-04-30T00:28:43.929Z,6.53
2018-04-30T00:31:11.397Z,6.00
2018-04-30T00:33:38.925Z,6.53
2018-04-30T00:36:06.393Z,7.00
2018-04-30T00:38:33.929Z,6.20
2018-04-30T00:41:01.543Z,6.13
2018-04-30T00:43:29.072Z,6.47
2018-04-30T00:45:56.546Z,4.97
2018-04-30T00:48:24.022Z,4.73
2018-04-30T00:50:51.497Z,4.80
2018-04-30T00:53:19.202Z,4.33
2018-04-30T00:55:46.663Z,4.17
2018-04-30T00:58:14.124Z,4.50
2018-04-30T01:00:41.883Z,4.37
2018-04-30T01:03:09.352Z,4.90
2018-04-30T01:05:36.809Z,4.40
2018-04-30T01:08:04.285Z,4.77
2018-04-30T01:10:31.749Z,4.40
2018-04-30T01:12:59.221Z,4.50
2018-04-30T01:15:26.681Z,4.93
2018-04-30T01:17:54.181Z,5.03
2018-04-30T01:20:21.628Z,4.80
2018-04-30T01:22:49.098Z,4.90
2018-04-30T01:25:16.567Z,4.83
2018-04-30T01:27:44.033Z,4.50
2018-04-30T01:30:12.249Z,4.60
2018-04-30T01:32:39.697Z,4.57
2018-04-30T01:35:07.355Z,4.20
2018-04-30T01:37:34.797Z,4.40
2018-04-30T01:40:02.274Z,4.50
2018-04-30T01:42:29.730Z,4.40
2018-04-30T01:44:57.189Z,4.77
2018-04-30T01:47:24.645Z,4.17
2018-04-30T01:49:52.115Z,4.30
2018-04-30T01:52:19.573Z,3.77
2018-04-30T01:54:47.041Z,3.70
2018-04-30T01:57:14.488Z,2.87
2018-04-30T01:59:41.957Z,2.80
2018-04-30T02:02:09.413Z,2.40
2018-04-30T02:04:36.880Z,2.43
2018-04-30T02:07:04.334Z,2.30
2018-04-30T02:09:31.807Z,2.00
2018-04-30T02:11:59.271Z,2.50
2018-04-30T02:14:26.744Z,2.30
2018-04-30T02:16:54.252Z,2.03
2018-04-30T02:19:22.337Z,2.30
2018-04-30T02:21:49.973Z,2.20
2018-04-30T02:24:17.433Z,2.20
2018-04-30T02:26:44.897Z,2.20
2018-04-30T02:29:12.370Z,2.13
2018-04-30T02:31:39.860Z,2.07
2018-04-30T02:34:07.323Z,1.80
2018-04-30T02:36:34.780Z,1.50
2018-04-30T02:39:02.237Z,1.90
2018-04-30T02:41:29.749Z,1.60
2018-04-30T02:43:57.387Z,1.40
2018-04-30T02:46:24.980Z,1.40
2018-04-30T02:48:52.727Z,1.27
2018-04-30T02:51:20.201Z,1.10
2018-04-30T02:53:47.848Z,1.07
2018-04-30T02:56:15.415Z,1.10
2018-04-30T02:58:42.882Z,0.97
2018-04-30T03:01:10.442Z,0.90
2018-04-30T03:03:38.690Z,1.00
2018-04-30T03:06:06.151Z,1.00
2018-04-30T03:08:33.930Z,0.93
2018-04-30T03:11:01.388Z,1.00
2018-04-30T03:13:29.040Z,1.20
2018-04-30T03:15:56.524Z,1.00
2018-04-30T03:18:24.893Z,1.23
2018-04-30T03:20:53.275Z,1.20
2018-04-30T03:23:20.916Z,1.00
2018-04-30T03:25:48.577Z,0.97
2018-04-30T03:28:16.083Z,1.10
2018-04-30T03:30:43.680Z,1.00
2018-04-30T03:33:11.158Z,0.90
2018-04-30T03:35:38.713Z,0.80
2018-04-30T03:38:06.163Z,0.80
2018-04-30T03:40:33.929Z,0.97
2018-04-30T03:43:01.385Z,1.00
2018-04-30T03:45:29.059Z,0.67
2018-04-30T03:47:56.509Z,0.70
2018-04-30T03:50:23.975Z,0.70
2018-04-30T03:52:51.430Z,0.80
2018-04-30T03:55:19.288Z,0.70
2018-04-30T03:57:46.758Z,1.00
2018-04-30T04:00:26.034Z,0.70
2018-04-30T04:03:05.373Z,0.70
2018-04-30T04:05:44.666Z,0.80
2018-04-30T04:08:12.113Z,0.70
2018-04-30T04:10:39.572Z,0.70
2018-04-30T04:13:07.038Z,0.80
2018-04-30T04:15:34.489Z,0.70
2018-04-30T04:18:01.973Z,0.80
2018-04-30T04:20:29.429Z,0.80
2018-04-30T04:22:56.900Z,0.83
2018-04-30T04:25:24.354Z,0.70
2018-04-30T04:27:51.817Z,1.03
2018-04-30T04:30:19.273Z,0.90
2018-04-30T04:32:46.744Z,0.80
2018-04-30T04:35:14.239Z,1.10
2018-04-30T04:37:41.902Z,0.80
2018-04-30T04:40:09.359Z,0.90
2018-04-30T04:42:36.908Z,0.67
2018-04-30T04:45:04.592Z,0.90
2018-04-30T04:47:32.131Z,0.87
2018-04-30T04:49:59.584Z,0.80
2018-04-30T04:52:27.037Z,1.20
2018-04-30T04:54:54.515Z,1.20
2018-04-30T04:57:21.992Z,1.00
2018-04-30T04:59:49.572Z,1.00
2018-04-30T05:02:17.022Z,0.83
2018-04-30T05:04:44.481Z,0.70
2018-04-30T05:07:11.933Z,1.10
2018-04-30T05:09:39.401Z,2.30
2018-04-30T05:12:06.876Z,2.40
2018-04-30T05:14:34.334Z,3.80
2018-04-30T05:17:01.794Z,0.80
2018-04-30T05:19:29.252Z,0.80
2018-04-30T05:21:56.709Z,0.90
2018-04-30T05:24:24.165Z,0.70
2018-04-30T05:26:51.620Z,0.60
2018-04-30T05:29:19.081Z,0.77
2018-04-30T05:31:46.664Z,0.70
2018-04-30T05:34:14.418Z,0.63
2018-04-30T05:36:42.074Z,0.70
2018-04-30T05:39:09.541Z,0.87
2018-04-30T05:41:37.102Z,2.00
2018-04-30T05:44:04.582Z,0.70
2018-04-30T05:46:32.081Z,0.90
2018-04-30T05:48:59.772Z,0.93
2018-04-30T05:51:27.229Z,4.00
2018-04-30T05:53:54.685Z,0.87
2018-04-30T05:56:22.332Z,0.63
2018-04-30T05:58:49.799Z,1.00
2018-04-30T06:01:17.363Z,0.80
2018-04-30T06:03:44.992Z,0.80
2018-04-30T06:06:12.464Z,0.87
2018-04-30T06:08:39.914Z,0.83
2018-04-30T06:11:07.377Z,0.80
2018-04-30T06:13:34.829Z,0.70
2018-04-30T06:16:02.338Z,0.73
2018-04-30T06:18:29.785Z,0.70
2018-04-30T06:20:58.174Z,0.80
2018-04-30T06:23:25.632Z,0.70
2018-04-30T06:25:53.162Z,0.80
2018-04-30T06:28:20.933Z,0.87
2018-04-30T06:30:49.614Z,0.90
2018-04-30T06:33:17.072Z,0.93
2018-04-30T06:35:44.560Z,0.80
2018-04-30T06:38:12.013Z,0.70
2018-04-30T06:40:39.469Z,0.90
2018-04-30T06:43:07.701Z,0.80
2018-04-30T06:45:35.173Z,0.80
2018-04-30T06:48:02.636Z,1.00
2018-04-30T06:50:30.083Z,0.90
2018-04-30T06:52:57.599Z,0.73
2018-04-30T06:55:25.059Z,0.97
2018-04-30T06:57:52.514Z,0.90
2018-04-30T07:00:20.017Z,0.87
2018-04-30T07:02:47.464Z,0.83
2018-04-30T07:05:14.916Z,0.70
2018-04-30T07:07:42.368Z,1.00
2018-04-30T07:10:10.461Z,0.97
2018-04-30T07:12:37.917Z,1.47
2018-04-30T07:15:05.570Z,1.10
2018-04-30T07:17:33.024Z,0.90
2018-04-30T07:20:00.534Z,1.30
2018-04-30T07:22:27.958Z,2.23
2018-04-30T07:24:55.498Z,1.03
2018-04-30T07:27:22.962Z,1.10
2018-04-30T07:29:50.597Z,1.00
2018-04-30T07:32:18.053Z,1.77
2018-04-30T07:34:46.292Z,0.97
2018-04-30T07:37:13.865Z,1.13
2018-04-30T07:39:41.332Z,1.87
2018-04-30T07:42:08.793Z,1.00
2018-04-30T07:44:36.337Z,1.00
2018-04-30T07:47:04.001Z,1.00
2018-04-30T07:49:31.469Z,1.00
2018-04-30T07:51:58.978Z,1.00
2018-04-30T07:54:26.440Z,0.93
2018-04-30T07:56:53.901Z,1.10
2018-04-30T07:59:21.435Z,0.90
2018-04-30T08:01:48.907Z,1.00
2018-04-30T08:04:16.652Z,1.03
2018-04-30T08:06:44.413Z,1.00
2018-04-30T08:09:11.928Z,1.07
2018-04-30T08:11:39.633Z,1.00
2018-04-30T08:14:07.281Z,0.90
2018-04-30T08:16:34.846Z,2.17
2018-04-30T08:19:02.313Z,1.30
2018-04-30T08:21:30.145Z,1.40
2018-04-30T08:23:58.639Z,1.43
2018-04-30T08:26:26.145Z,1.00
2018-04-30T08:28:53.601Z,0.90
2018-04-30T08:31:21.061Z,1.10
2018-04-30T08:33:49.518Z,1.07
2018-04-30T08:36:17.272Z,1.13
2018-04-30T08:38:44.923Z,1.00
2018-04-30T08:41:12.407Z,0.90
2018-04-30T08:43:39.952Z,1.10
2018-04-30T08:46:07.417Z,1.10
2018-04-30T08:48:35.187Z,0.97
2018-04-30T08:51:02.893Z,1.00
2018-04-30T08:53:30.402Z,1.03
2018-04-30T08:55:57.876Z,1.10
2018-04-30T08:58:25.445Z,1.10
2018-04-30T09:00:52.908Z,1.10
2018-04-30T09:03:20.441Z,1.50
2018-04-30T09:05:47.908Z,1.20
2018-04-30T09:08:15.361Z,1.10
2018-04-30T09:10:42.824Z,0.80
2018-04-30T09:13:10.280Z,1.23
2018-04-30T09:15:37.744Z,1.10
2018-04-30T09:18:05.193Z,0.87
2018-04-30T09:20:32.660Z,0.73
2018-04-30T09:23:00.114Z,0.70
2018-04-30T09:25:27.654Z,0.80
2018-04-30T09:27:55.101Z,0.80
2018-04-30T09:30:22.870Z,0.70
2018-04-30T09:32:50.531Z,0.97
2018-04-30T09:35:18.004Z,0.80
2018-04-30T09:37:45.468Z,1.00
2018-04-30T09:40:12.991Z,0.70
2018-04-30T09:42:40.638Z,0.70
2018-04-30T09:45:08.214Z,0.70
2018-04-30T09:47:35.849Z,0.80
2018-04-30T09:50:03.433Z,0.77
2018-04-30T09:52:30.905Z,0.60
2018-04-30T09:54:58.732Z,0.70
2018-04-30T09:57:26.197Z,0.97
2018-04-30T09:59:53.868Z,0.80
2018-04-30T10:02:21.352Z,0.60
2018-04-30T10:04:50.021Z,0.90
2018-04-30T10:07:17.851Z,0.70
2018-04-30T10:09:45.232Z,0.87
2018-04-30T10:12:12.878Z,0.90
2018-04-30T10:14:40.357Z,0.60
2018-04-30T10:17:07.841Z,0.70
2018-04-30T10:19:35.289Z,0.80
2018-04-30T10:22:02.783Z,1.10
2018-04-30T10:24:30.241Z,0.60
2018-04-30T10:26:57.742Z,0.80
2018-04-30T10:29:25.501Z,2.37
2018-04-30T10:31:52.956Z,0.80
2018-04-30T10:34:20.420Z,0.60
2018-04-30T10:36:48.046Z,0.80
2018-04-30T10:39:15.592Z,0.70
2018-04-30T10:41:43.043Z,0.90
2018-04-30T10:44:10.508Z,1.10
2018-04-30T10:46:37.961Z,0.80
2018-04-30T10:49:05.421Z,0.70
2018-04-30T10:51:32.887Z,0.70
2018-04-30T10:54:00.340Z,0.80
2018-04-30T10:56:27.834Z,0.73
2018-04-30T10:58:55.302Z,0.83
2018-04-30T11:01:22.767Z,0.90
2018-04-30T11:03:51.006Z,0.60
2018-04-30T11:06:18.465Z,1.00
2018-04-30T11:08:45.924Z,0.80
2018-04-30T11:11:13.384Z,1.00
2018-04-30T11:13:40.840Z,0.80
2018-04-30T11:16:08.307Z,0.60
2018-04-30T11:18:35.760Z,3.47
2018-04-30T11:21:03.327Z,1.30
2018-04-30T11:23:31.084Z,2.67
2018-04-30T11:25:58.589Z,1.77
2018-04-30T11:28:26.061Z,1.00
2018-04-30T11:30:53.518Z,1.23
2018-04-30T11:33:20.975Z,1.77
2018-04-30T11:35:48.451Z,1.50
2018-04-30T11:38:15.921Z,0.70
2018-04-30T11:40:43.373Z,0.60
2018-04-30T11:43:10.840Z,0.50
2018-04-30T11:45:38.309Z,0.70
2018-04-30T11:48:06.553Z,0.67
2018-04-30T11:50:34.041Z,0.80
2018-04-30T11:53:01.723Z,0.70
2018-04-30T11:55:29.173Z,0.50
2018-04-30T11:57:56.667Z,0.90
2018-04-30T12:00:24.125Z,0.60
2018-04-30T12:02:51.592Z,0.90
2018-04-30T12:05:19.096Z,0.90
2018-04-30T12:07:46.773Z,0.53
2018-04-30T12:10:14.301Z,0.60
2018-04-30T12:12:42.074Z,0.67
2018-04-30T12:15:09.545Z,11.53
2018-04-30T12:17:37.308Z,5.90
2018-04-30T12:20:04.774Z,0.80
2018-04-30T12:22:32.433Z,0.60
2018-04-30T12:24:59.886Z,0.90
2018-04-30T12:27:27.336Z,0.90
2018-04-30T12:29:54.800Z,0.60
2018-04-30T12:32:22.397Z,0.70
2018-04-30T12:34:50.103Z,0.60
2018-04-30T12:37:17.565Z,0.60
2018-04-30T12:39:45.315Z,0.63
2018-04-30T12:42:13.076Z,0.80
2018-04-30T12:44:40.840Z,0.70
2018-04-30T12:47:08.769Z,0.70
2018-04-30T12:49:36.403Z,0.80
2018-04-30T12:52:04.137Z,0.70
2018-04-30T12:54:31.898Z,0.60
2018-04-30T12:56:59.539Z,0.90
2018-04-30T12:59:27.609Z,0.90
2018-04-30T13:01:55.101Z,0.60
2018-04-30T13:04:22.577Z,0.80
2018-04-30T13:06:50.110Z,0.60
2018-04-30T13:09:17.865Z,0.80
2018-04-30T13:11:45.336Z,0.80
2018-04-30T13:14:12.813Z,0.80
2018-04-30T13:16:40.461Z,0.90
2018-04-30T13:19:07.916Z,1.23
2018-04-30T13:21:35.388Z,1.97
2018-04-30T13:24:02.856Z,0.80
2018-04-30T13:26:30.329Z,0.90
2018-04-30T13:28:57.785Z,0.97
2018-04-30T13:31:25.249Z,1.20
2018-04-30T13:33:52.738Z,0.70
2018-04-30T13:36:20.229Z,1.60
2018-04-30T13:38:47.823Z,1.30
2018-04-30T13:41:15.278Z,0.80
2018-04-30T13:43:42.798Z,0.80
2018-04-30T13:46:10.209Z,1.97
2018-04-30T13:48:37.657Z,0.70
2018-04-30T13:51:05.249Z,0.63
2018-04-30T13:53:32.701Z,0.90
2018-04-30T13:56:00.161Z,0.80
2018-04-30T13:58:27.613Z,0.70
2018-04-30T14:00:55.085Z,0.60
2018-04-30T14:03:24.066Z,0.90
2018-04-30T14:05:51.534Z,0.90
2018-04-30T14:08:19.001Z,1.50
2018-04-30T14:10:46.454Z,0.90
2018-04-30T14:13:14.055Z,0.80
2018-04-30T14:15:41.525Z,0.83
2018-04-30T14:18:08.984Z,0.70
2018-04-30T14:20:36.442Z,4.57
2018-04-30T14:23:04.954Z,2.20
2018-04-30T14:25:32.457Z,0.80
2018-04-30T14:27:59.917Z,0.80
2018-04-30T14:30:27.374Z,0.77
2018-04-30T14:32:54.833Z,0.80
2018-04-30T14:35:23.018Z,0.80
2018-04-30T14:37:50.481Z,0.87
2018-04-30T14:40:17.937Z,0.60
2018-04-30T14:42:45.421Z,0.60
2018-04-30T14:45:12.885Z,0.60
2018-04-30T14:47:40.341Z,0.70
2018-04-30T14:50:07.802Z,0.80
2018-04-30T14:52:35.263Z,0.60
2018-04-30T14:55:02.717Z,0.60
2018-04-30T14:57:30.177Z,0.70
2018-04-30T14:59:57.649Z,0.60
2018-04-30T15:02:25.910Z,0.73
2018-04-30T15:04:53.474Z,0.87
2018-04-30T15:07:20.974Z,0.73
2018-04-30T15:09:48.459Z,0.70
2018-04-30T15:12:15.930Z,0.70
2018-04-30T15:14:43.419Z,0.57
2018-04-30T15:17:11.512Z,0.70
2018-04-30T15:19:39.102Z,0.50
2018-04-30T15:22:08.099Z,0.70
2018-04-30T15:24:35.616Z,0.53
2018-04-30T15:27:03.114Z,0.60
2018-04-30T15:29:30.608Z,0.60
2018-04-30T15:31:58.103Z,0.60
2018-04-30T15:34:25.586Z,0.70
2018-04-30T15:36:53.093Z,0.87
2018-04-30T15:39:21.346Z,0.57
2018-04-30T15:41:48.838Z,1.13
2018-04-30T15:44:17.103Z,0.90
2018-04-30T15:46:44.606Z,0.70
2018-04-30T15:49:12.123Z,1.00
2018-04-30T15:51:39.650Z,0.80
2018-04-30T15:54:07.125Z,1.27
2018-04-30T15:56:35.391Z,2.80
2018-04-30T15:59:02.909Z,1.00
2018-04-30T16:01:30.511Z,2.43
2018-04-30T16:03:58.675Z,1.27
2018-04-30T16:06:26.139Z,1.00
2018-04-30T16:08:53.616Z,0.80
2018-04-30T16:11:21.118Z,0.70
2018-04-30T16:13:48.659Z,0.80
2018-04-30T16:16:16.129Z,0.73
2018-04-30T16:18:43.678Z,0.83
2018-04-30T16:21:11.131Z,0.93
2018-04-30T16:23:38.653Z,0.77
2018-04-30T16:26:06.934Z,0.80
2018-04-30T16:28:34.450Z,0.60
2018-04-30T16:31:01.996Z,0.70
2018-04-30T16:33:29.611Z,1.27
2018-04-30T16:35:57.948Z,1.80
2018-04-30T16:38:25.605Z,1.10
2018-04-30T16:40:53.135Z,0.97
2018-04-30T16:43:20.710Z,0.70
2018-04-30T16:45:48.345Z,0.80
2018-04-30T16:48:15.940Z,1.03
2018-04-30T16:50:43.502Z,1.63
2018-04-30T16:53:11.233Z,1.00
2018-04-30T16:55:38.802Z,0.70
2018-04-30T16:58:06.392Z,0.80
2018-04-30T17:00:33.917Z,0.70
2018-04-30T17:03:01.513Z,0.80
2018-04-30T17:05:29.201Z,0.80
2018-04-30T17:07:56.886Z,0.60
2018-04-30T17:10:24.483Z,0.70
2018-04-30T17:12:52.163Z,0.70
2018-04-30T17:15:19.762Z,0.80
2018-04-30T17:17:48.151Z,0.90
2018-04-30T17:20:15.713Z,2.87
2018-04-30T17:22:43.344Z,1.27
2018-04-30T17:25:11.759Z,0.90
2018-04-30T17:27:39.427Z,1.30
2018-04-30T17:30:06.987Z,0.80
2018-04-30T17:32:35.341Z,0.73
2018-04-30T17:35:02.947Z,0.90
2018-04-30T17:37:30.542Z,1.20
2018-04-30T17:39:58.077Z,1.03
2018-04-30T17:42:25.639Z,2.50
2018-04-30T17:44:53.203Z,1.40
2018-04-30T17:47:20.718Z,1.40
2018-04-30T17:49:48.256Z,4.20
2018-04-30T17:52:15.871Z,1.00
2018-04-30T17:54:44.471Z,0.90
2018-04-30T17:57:12.116Z,2.27
2018-04-30T17:59:39.663Z,1.20
2018-04-30T18:02:07.259Z,0.90
2018-04-30T18:04:34.948Z,0.83
2018-04-30T18:07:02.757Z,0.83
2018-04-30T18:09:30.161Z,0.70
2018-04-30T18:11:59.018Z,0.90
2018-04-30T18:14:26.609Z,2.57
2018-04-30T18:16:54.145Z,0.80
2018-04-30T18:19:21.649Z,1.27
2018-04-30T18:21:49.160Z,1.30
2018-04-30T18:24:16.698Z,0.90
2018-04-30T18:26:44.244Z,1.20
2018-04-30T18:29:11.745Z,1.00
2018-04-30T18:31:40.124Z,1.20
2018-04-30T18:34:07.677Z,1.20
2018-04-30T18:36:35.187Z,0.90
2018-04-30T18:39:02.717Z,0.80
2018-04-30T18:41:31.792Z,1.00
2018-04-30T18:43:59.285Z,0.80
2018-04-30T18:46:26.825Z,1.00
2018-04-30T18:48:54.315Z,0.90
2018-04-30T18:51:22.109Z,0.90
2018-04-30T18:53:49.592Z,0.90
2018-04-30T18:56:17.844Z,0.83
2018-04-30T18:58:45.335Z,0.87
2018-04-30T19:01:12.854Z,0.93
2018-04-30T19:03:40.340Z,0.80
2018-04-30T19:06:07.825Z,0.90
2018-04-30T19:08:35.318Z,1.73
2018-04-30T19:11:02.851Z,2.00
2018-04-30T19:13:30.333Z,1.00
2018-04-30T19:15:57.860Z,0.90
2018-04-30T19:18:25.324Z,0.80
2018-04-30T19:20:52.812Z,0.93
2018-04-30T19:23:20.316Z,0.90
2018-04-30T19:25:48.587Z,0.80
2018-04-30T19:28:16.061Z,0.80
2018-04-30T19:30:43.619Z,1.07
2018-04-30T19:33:11.165Z,0.90
2018-04-30T19:35:38.703Z,0.90
2018-04-30T19:38:06.231Z,0.90
2018-04-30T19:40:33.716Z,0.80
2018-04-30T19:43:01.255Z,0.80
2018-04-30T19:45:28.853Z,0.80
2018-04-30T19:47:56.274Z,0.90
2018-04-30T19:50:23.882Z,0.90
2018-04-30T19:52:51.485Z,0.80
2018-04-30T19:55:19.015Z,0.80
2018-04-30T19:57:47.400Z,0.80
2018-04-30T20:00:15.035Z,0.80
2018-04-30T20:02:42.545Z,1.10
2018-04-30T20:05:10.054Z,0.83
2018-04-30T20:07:37.544Z,0.80
2018-04-30T20:10:05.091Z,1.90
2018-04-30T20:12:32.584Z,1.37
2018-04-30T20:15:00.148Z,0.90
2018-04-30T20:17:27.665Z,0.93
2018-04-30T20:19:55.297Z,0.80
2018-04-30T20:22:22.892Z,0.70
2018-04-30T20:24:50.389Z,0.90
2018-04-30T20:27:17.909Z,1.00
2018-04-30T20:29:45.416Z,0.80
2018-04-30T20:32:12.956Z,0.90
2018-04-30T20:34:41.490Z,0.90
2018-04-30T20:37:09.737Z,0.80
2018-04-30T20:39:37.218Z,0.90
2018-04-30T20:42:04.708Z,1.00
2018-04-30T20:44:32.279Z,0.90
2018-04-30T20:47:00.503Z,0.90
2018-04-30T20:49:28.776Z,0.90
2018-04-30T20:51:56.321Z,0.80
2018-04-30T20:54:23.824Z,1.13
2018-04-30T20:56:51.380Z,1.10
2018-04-30T20:59:18.855Z,0.90
2018-04-30T21:01:46.384Z,0.90
2018-04-30T21:04:14.278Z,0.80
2018-04-30T21:06:42.035Z,0.90
2018-04-30T21:09:14.486Z,1.10
2018-04-30T21:11:42.722Z,0.83
2018-04-30T21:14:10.188Z,0.90
2018-04-30T21:16:37.683Z,1.00
2018-04-30T21:19:05.158Z,0.80
2018-04-30T21:21:32.638Z,0.90
2018-04-30T21:24:00.107Z,0.80
2018-04-30T21:26:27.588Z,0.93
2018-04-30T21:28:55.063Z,0.90
2018-04-30T21:31:23.308Z,0.90
2018-04-30T21:33:50.812Z,0.80
2018-04-30T21:36:18.302Z,0.90
2018-04-30T21:38:45.824Z,0.80
2018-04-30T21:41:13.327Z,0.80
2018-04-30T21:43:40.832Z,0.73
2018-04-30T21:46:08.320Z,0.90
2018-04-30T21:48:35.868Z,0.80
2018-04-30T21:51:03.358Z,0.90
2018-04-30T21:53:30.863Z,1.70
2018-04-30T21:55:59.131Z,1.10
2018-04-30T21:58:26.648Z,0.90
2018-04-30T22:00:54.115Z,0.80
2018-04-30T22:03:21.628Z,0.90
2018-04-30T22:05:49.107Z,0.80
2018-04-30T22:08:16.627Z,0.90
2018-04-30T22:10:44.077Z,0.90
2018-04-30T22:13:11.543Z,0.90
2018-04-30T22:15:38.996Z,0.80
2018-04-30T22:18:06.475Z,1.03
2018-04-30T22:20:33.925Z,0.97
2018-04-30T22:23:01.393Z,0.90
2018-04-30T22:25:28.885Z,0.90
2018-04-30T22:27:56.646Z,0.90
2018-04-30T22:30:24.291Z,0.80
2018-04-30T22:32:51.780Z,0.90
2018-04-30T22:35:19.250Z,1.20
2018-04-30T22:37:46.705Z,0.93
2018-04-30T22:40:14.245Z,0.70
2018-04-30T22:42:41.716Z,0.90
2018-04-30T22:45:09.340Z,0.80
2018-04-30T22:47:36.920Z,0.80
2018-04-30T22:50:04.685Z,0.80
2018-04-30T22:52:32.165Z,1.00
2018-04-30T22:54:59.849Z,0.90
2018-04-30T22:57:27.365Z,0.90
2018-04-30T22:59:55.124Z,0.90
2018-04-30T23:02:22.760Z,1.00
2018-04-30T23:04:50.216Z,0.70
2018-04-30T23:07:17.665Z,0.87
2018-04-30T23:09:45.133Z,1.00
2018-04-30T23:12:12.721Z,0.97
2018-04-30T23:14:40.452Z,1.00
2018-04-30T23:17:07.936Z,1.10
2018-04-30T23:19:35.398Z,0.97
2018-04-30T23:22:02.860Z,1.30
2018-04-30T23:24:30.390Z,0.93
2018-04-30T23:26:58.080Z,0.87
2018-04-30T23:29:25.528Z,0.90
2018-04-30T23:31:52.988Z,1.10
2018-04-30T23:34:20.470Z,1.00
2018-04-30T23:36:47.933Z,0.90
2018-04-30T23:39:15.574Z,1.00
2018-04-30T23:41:43.125Z,0.80
2018-04-30T23:44:10.585Z,0.80
2018-04-30T23:46:38.343Z,0.93
2018-04-30T23:49:05.801Z,0.83
2018-04-30T23:51:33.264Z,0.93
2018-04-30T23:54:00.892Z,0.90
2018-04-30T23:56:28.381Z,0.93
2018-04-30T23:58:55.854Z,0.80
